sensor_id;sensor_type;location;lat;lon;timestamp;P1;durP1;ratioP1;P2;durP2;ratioP2
53263;SDS011;39153;52.680;6.172;2022-10-15T00:01:39;75.78;;;43.33;;
53263;SDS011;39153;52.680;6.172;2022-10-15T00:04:04;74.18;;;42.13;;
53263;SDS011;39153;52.680;6.172;2022-10-15T00:06:30;79.45;;;43.22;;
53263;SDS011;39153;52.680;6.172;2022-10-15T00:08:56;79.35;;;45.30;;
53263;SDS011;39153;52.680;6.172;2022-10-15T00:11:23;84.53;;;45.47;;
53263;SDS011;39153;52.680;6.172;2022-10-15T00:13:53;80.38;;;44.08;;
53263;SDS011;39153;52.680;6.172;2022-10-15T00:16:20;85.68;;;45.53;;
53263;SDS011;39153;52.680;6.172;2022-10-15T00:18:48;83.72;;;45.72;;
53263;SDS011;39153;52.680;6.172;2022-10-15T00:21:16;92.25;;;53.67;;
53263;SDS011;39153;52.680;6.172;2022-10-15T00:23:43;88.43;;;45.05;;
53263;SDS011;39153;52.680;6.172;2022-10-15T00:26:14;85.00;;;44.92;;
53263;SDS011;39153;52.680;6.172;2022-10-15T00:28:41;84.90;;;46.00;;
53263;SDS011;39153;52.680;6.172;2022-10-15T00:31:08;89.10;;;46.75;;
53263;SDS011;39153;52.680;6.172;2022-10-15T00:33:36;90.80;;;54.40;;
53263;SDS011;39153;52.680;6.172;2022-10-15T00:36:04;76.47;;;43.13;;
53263;SDS011;39153;52.680;6.172;2022-10-15T00:38:33;93.20;;;46.38;;
53263;SDS011;39153;52.680;6.172;2022-10-15T00:40:59;77.22;;;43.72;;
53263;SDS011;39153;52.680;6.172;2022-10-15T00:43:35;79.07;;;44.17;;
53263;SDS011;39153;52.680;6.172;2022-10-15T00:46:04;78.47;;;42.38;;
53263;SDS011;39153;52.680;6.172;2022-10-15T00:48:36;79.20;;;44.45;;
53263;SDS011;39153;52.680;6.172;2022-10-15T00:51:02;74.95;;;44.22;;
53263;SDS011;39153;52.680;6.172;2022-10-15T00:53:29;72.57;;;42.35;;
53263;SDS011;39153;52.680;6.172;2022-10-15T00:55:55;72.93;;;42.97;;
53263;SDS011;39153;52.680;6.172;2022-10-15T00:58:21;73.75;;;42.53;;
53263;SDS011;39153;52.680;6.172;2022-10-15T01:00:54;69.40;;;41.65;;
53263;SDS011;39153;52.680;6.172;2022-10-15T01:03:21;66.28;;;40.42;;
53263;SDS011;39153;52.680;6.172;2022-10-15T01:05:47;76.18;;;49.22;;
53263;SDS011;39153;52.680;6.172;2022-10-15T01:08:16;60.22;;;38.85;;
53263;SDS011;39153;52.680;6.172;2022-10-15T01:10:58;62.55;;;38.35;;
53263;SDS011;39153;52.680;6.172;2022-10-15T01:18:48;56.72;;;35.63;;
53263;SDS011;39153;52.680;6.172;2022-10-15T01:21:36;54.80;;;34.78;;
53263;SDS011;39153;52.680;6.172;2022-10-15T01:26:59;58.95;;;35.83;;
53263;SDS011;39153;52.680;6.172;2022-10-15T01:32:35;54.47;;;35.67;;
53263;SDS011;39153;52.680;6.172;2022-10-15T01:37:37;54.20;;;35.28;;
53263;SDS011;39153;52.680;6.172;2022-10-15T01:40:17;57.78;;;34.70;;
53263;SDS011;39153;52.680;6.172;2022-10-15T01:42:57;54.00;;;35.60;;
53263;SDS011;39153;52.680;6.172;2022-10-15T01:47:55;49.03;;;31.52;;
53263;SDS011;39153;52.680;6.172;2022-10-15T01:50:24;49.97;;;31.80;;
53263;SDS011;39153;52.680;6.172;2022-10-15T01:52:52;54.10;;;33.97;;
53263;SDS011;39153;52.680;6.172;2022-10-15T01:55:21;55.65;;;34.28;;
53263;SDS011;39153;52.680;6.172;2022-10-15T01:57:49;52.65;;;33.35;;
53263;SDS011;39153;52.680;6.172;2022-10-15T02:00:16;54.15;;;33.75;;
53263;SDS011;39153;52.680;6.172;2022-10-15T02:02:42;51.85;;;32.80;;
53263;SDS011;39153;52.680;6.172;2022-10-15T02:05:10;51.83;;;33.22;;
53263;SDS011;39153;52.680;6.172;2022-10-15T02:07:50;51.70;;;31.60;;
53263;SDS011;39153;52.680;6.172;2022-10-15T02:10:32;53.00;;;33.42;;
53263;SDS011;39153;52.680;6.172;2022-10-15T02:13:40;50.33;;;31.85;;
53263;SDS011;39153;52.680;6.172;2022-10-15T02:16:37;50.80;;;30.90;;
53263;SDS011;39153;52.680;6.172;2022-10-15T02:22:00;48.92;;;31.83;;
53263;SDS011;39153;52.680;6.172;2022-10-15T02:25:04;56.05;;;32.35;;
53263;SDS011;39153;52.680;6.172;2022-10-15T02:27:38;54.53;;;32.47;;
53263;SDS011;39153;52.680;6.172;2022-10-15T02:30:06;55.42;;;33.20;;
53263;SDS011;39153;52.680;6.172;2022-10-15T02:32:34;57.30;;;34.10;;
53263;SDS011;39153;52.680;6.172;2022-10-15T02:35:03;51.35;;;33.00;;
53263;SDS011;39153;52.680;6.172;2022-10-15T02:37:32;58.08;;;36.70;;
53263;SDS011;39153;52.680;6.172;2022-10-15T02:39:59;53.60;;;35.67;;
53263;SDS011;39153;52.680;6.172;2022-10-15T02:42:25;57.65;;;34.58;;
53263;SDS011;39153;52.680;6.172;2022-10-15T02:44:54;56.35;;;34.92;;
53263;SDS011;39153;52.680;6.172;2022-10-15T02:47:19;55.88;;;34.65;;
53263;SDS011;39153;52.680;6.172;2022-10-15T02:49:45;59.65;;;35.92;;
53263;SDS011;39153;52.680;6.172;2022-10-15T02:52:11;62.53;;;36.40;;
53263;SDS011;39153;52.680;6.172;2022-10-15T02:54:36;55.20;;;35.33;;
53263;SDS011;39153;52.680;6.172;2022-10-15T02:57:02;64.25;;;36.30;;
53263;SDS011;39153;52.680;6.172;2022-10-15T02:59:28;62.28;;;36.97;;
53263;SDS011;39153;52.680;6.172;2022-10-15T03:01:53;57.35;;;36.88;;
53263;SDS011;39153;52.680;6.172;2022-10-15T03:04:19;67.47;;;45.55;;
53263;SDS011;39153;52.680;6.172;2022-10-15T03:06:45;59.60;;;35.88;;
53263;SDS011;39153;52.680;6.172;2022-10-15T03:09:10;61.22;;;37.80;;
53263;SDS011;39153;52.680;6.172;2022-10-15T03:11:36;65.40;;;38.40;;
53263;SDS011;39153;52.680;6.172;2022-10-15T03:14:03;72.53;;;47.17;;
53263;SDS011;39153;52.680;6.172;2022-10-15T03:16:28;67.32;;;39.42;;
53263;SDS011;39153;52.680;6.172;2022-10-15T03:18:54;73.68;;;41.13;;
53263;SDS011;39153;52.680;6.172;2022-10-15T03:21:20;70.60;;;41.47;;
53263;SDS011;39153;52.680;6.172;2022-10-15T03:23:46;68.97;;;41.17;;
53263;SDS011;39153;52.680;6.172;2022-10-15T03:26:11;78.03;;;43.10;;
53263;SDS011;39153;52.680;6.172;2022-10-15T03:28:37;72.85;;;42.58;;
53263;SDS011;39153;52.680;6.172;2022-10-15T03:31:03;81.05;;;44.92;;
53263;SDS011;39153;52.680;6.172;2022-10-15T03:33:28;85.20;;;54.33;;
53263;SDS011;39153;52.680;6.172;2022-10-15T03:35:54;83.97;;;45.22;;
53263;SDS011;39153;52.680;6.172;2022-10-15T03:38:21;83.15;;;46.50;;
53263;SDS011;39153;52.680;6.172;2022-10-15T03:40:46;86.88;;;47.28;;
53263;SDS011;39153;52.680;6.172;2022-10-15T03:43:12;90.32;;;48.17;;
53263;SDS011;39153;52.680;6.172;2022-10-15T03:45:38;85.13;;;48.88;;
53263;SDS011;39153;52.680;6.172;2022-10-15T03:48:04;89.57;;;47.72;;
53263;SDS011;39153;52.680;6.172;2022-10-15T03:50:30;96.85;;;48.72;;
53263;SDS011;39153;52.680;6.172;2022-10-15T03:52:55;99.60;;;49.55;;
53263;SDS011;39153;52.680;6.172;2022-10-15T03:55:21;94.55;;;49.80;;
53263;SDS011;39153;52.680;6.172;2022-10-15T03:57:47;95.95;;;51.63;;
53263;SDS011;39153;52.680;6.172;2022-10-15T04:00:12;101.88;;;52.10;;
53263;SDS011;39153;52.680;6.172;2022-10-15T04:02:39;103.75;;;53.38;;
53263;SDS011;39153;52.680;6.172;2022-10-15T04:05:04;107.18;;;52.70;;
53263;SDS011;39153;52.680;6.172;2022-10-15T04:07:30;102.18;;;51.63;;
53263;SDS011;39153;52.680;6.172;2022-10-15T04:09:56;99.88;;;52.80;;
53263;SDS011;39153;52.680;6.172;2022-10-15T04:12:22;100.68;;;52.08;;
53263;SDS011;39153;52.680;6.172;2022-10-15T04:14:48;87.70;;;47.42;;
53263;SDS011;39153;52.680;6.172;2022-10-15T04:17:14;94.20;;;50.92;;
53263;SDS011;39153;52.680;6.172;2022-10-15T04:19:40;99.18;;;52.60;;
53263;SDS011;39153;52.680;6.172;2022-10-15T04:22:05;94.70;;;49.58;;
53263;SDS011;39153;52.680;6.172;2022-10-15T04:24:31;98.40;;;51.88;;
53263;SDS011;39153;52.680;6.172;2022-10-15T04:26:57;103.85;;;52.30;;
53263;SDS011;39153;52.680;6.172;2022-10-15T04:29:22;91.88;;;50.80;;
53263;SDS011;39153;52.680;6.172;2022-10-15T04:31:48;96.55;;;50.10;;
53263;SDS011;39153;52.680;6.172;2022-10-15T04:34:14;100.85;;;51.97;;
53263;SDS011;39153;52.680;6.172;2022-10-15T04:36:39;100.88;;;50.78;;
53263;SDS011;39153;52.680;6.172;2022-10-15T04:39:05;109.57;;;63.08;;
53263;SDS011;39153;52.680;6.172;2022-10-15T04:41:31;108.13;;;50.55;;
53263;SDS011;39153;52.680;6.172;2022-10-15T04:43:57;111.80;;;53.42;;
53263;SDS011;39153;52.680;6.172;2022-10-15T04:46:23;118.13;;;54.60;;
53263;SDS011;39153;52.680;6.172;2022-10-15T04:48:48;121.20;;;57.88;;
53263;SDS011;39153;52.680;6.172;2022-10-15T04:51:15;124.03;;;56.90;;
53263;SDS011;39153;52.680;6.172;2022-10-15T04:53:43;120.43;;;57.42;;
53263;SDS011;39153;52.680;6.172;2022-10-15T04:56:11;132.63;;;57.97;;
53263;SDS011;39153;52.680;6.172;2022-10-15T04:58:39;121.30;;;56.30;;
53263;SDS011;39153;52.680;6.172;2022-10-15T05:01:07;129.57;;;58.92;;
53263;SDS011;39153;52.680;6.172;2022-10-15T05:03:37;130.73;;;57.05;;
53263;SDS011;39153;52.680;6.172;2022-10-15T05:06:05;130.75;;;56.75;;
53263;SDS011;39153;52.680;6.172;2022-10-15T05:08:33;121.10;;;56.47;;
53263;SDS011;39153;52.680;6.172;2022-10-15T05:11:04;130.85;;;56.15;;
53263;SDS011;39153;52.680;6.172;2022-10-15T05:13:31;121.22;;;55.70;;
53263;SDS011;39153;52.680;6.172;2022-10-15T05:15:57;126.47;;;57.28;;
53263;SDS011;39153;52.680;6.172;2022-10-15T05:18:40;120.15;;;56.50;;
53263;SDS011;39153;52.680;6.172;2022-10-15T05:21:07;114.03;;;55.35;;
53263;SDS011;39153;52.680;6.172;2022-10-15T05:23:34;121.50;;;55.85;;
53263;SDS011;39153;52.680;6.172;2022-10-15T05:26:07;123.15;;;55.92;;
53263;SDS011;39153;52.680;6.172;2022-10-15T05:28:35;127.03;;;57.38;;
53263;SDS011;39153;52.680;6.172;2022-10-15T05:31:05;125.38;;;57.85;;
53263;SDS011;39153;52.680;6.172;2022-10-15T05:33:32;133.18;;;57.22;;
53263;SDS011;39153;52.680;6.172;2022-10-15T05:36:06;123.85;;;57.85;;
53263;SDS011;39153;52.680;6.172;2022-10-15T05:38:37;121.03;;;56.75;;
53263;SDS011;39153;52.680;6.172;2022-10-15T05:41:03;117.32;;;56.03;;
53263;SDS011;39153;52.680;6.172;2022-10-15T05:43:29;120.93;;;56.88;;
53263;SDS011;39153;52.680;6.172;2022-10-15T05:45:55;121.57;;;57.42;;
53263;SDS011;39153;52.680;6.172;2022-10-15T05:48:22;127.50;;;59.45;;
53263;SDS011;39153;52.680;6.172;2022-10-15T05:50:48;124.93;;;59.78;;
53263;SDS011;39153;52.680;6.172;2022-10-15T05:53:14;124.28;;;59.97;;
53263;SDS011;39153;52.680;6.172;2022-10-15T05:55:39;137.00;;;59.22;;
53263;SDS011;39153;52.680;6.172;2022-10-15T05:58:05;121.32;;;58.47;;
53263;SDS011;39153;52.680;6.172;2022-10-15T06:00:31;111.50;;;55.50;;
53263;SDS011;39153;52.680;6.172;2022-10-15T06:02:57;116.55;;;58.17;;
53263;SDS011;39153;52.680;6.172;2022-10-15T06:05:23;118.82;;;57.47;;
53263;SDS011;39153;52.680;6.172;2022-10-15T06:07:49;122.43;;;59.33;;
53263;SDS011;39153;52.680;6.172;2022-10-15T06:10:14;125.63;;;68.13;;
53263;SDS011;39153;52.680;6.172;2022-10-15T06:12:41;129.57;;;59.38;;
53263;SDS011;39153;52.680;6.172;2022-10-15T06:15:07;119.25;;;55.10;;
53263;SDS011;39153;52.680;6.172;2022-10-15T06:17:33;122.90;;;58.95;;
53263;SDS011;39153;52.680;6.172;2022-10-15T06:19:59;120.95;;;58.38;;
53263;SDS011;39153;52.680;6.172;2022-10-15T06:22:25;113.45;;;52.80;;
53263;SDS011;39153;52.680;6.172;2022-10-15T06:24:54;114.20;;;55.97;;
53263;SDS011;39153;52.680;6.172;2022-10-15T06:27:20;113.78;;;56.13;;
53263;SDS011;39153;52.680;6.172;2022-10-15T06:29:46;111.28;;;53.55;;
53263;SDS011;39153;52.680;6.172;2022-10-15T06:32:11;115.88;;;55.33;;
53263;SDS011;39153;52.680;6.172;2022-10-15T06:34:37;111.72;;;55.15;;
53263;SDS011;39153;52.680;6.172;2022-10-15T06:37:03;111.82;;;55.13;;
53263;SDS011;39153;52.680;6.172;2022-10-15T06:39:28;107.45;;;54.30;;
53263;SDS011;39153;52.680;6.172;2022-10-15T06:41:54;102.40;;;52.58;;
53263;SDS011;39153;52.680;6.172;2022-10-15T06:44:20;117.57;;;56.42;;
53263;SDS011;39153;52.680;6.172;2022-10-15T06:46:45;112.97;;;57.10;;
53263;SDS011;39153;52.680;6.172;2022-10-15T06:49:11;121.60;;;65.80;;
53263;SDS011;39153;52.680;6.172;2022-10-15T06:51:37;107.80;;;52.78;;
53263;SDS011;39153;52.680;6.172;2022-10-15T06:54:05;108.90;;;54.72;;
53263;SDS011;39153;52.680;6.172;2022-10-15T06:56:31;112.32;;;55.35;;
53263;SDS011;39153;52.680;6.172;2022-10-15T06:58:56;120.15;;;56.80;;
53263;SDS011;39153;52.680;6.172;2022-10-15T07:01:22;120.10;;;57.58;;
53263;SDS011;39153;52.680;6.172;2022-10-15T07:03:48;126.97;;;60.70;;
53263;SDS011;39153;52.680;6.172;2022-10-15T07:06:14;118.53;;;59.45;;
53263;SDS011;39153;52.680;6.172;2022-10-15T07:08:40;114.30;;;57.75;;
53263;SDS011;39153;52.680;6.172;2022-10-15T07:11:06;116.13;;;57.60;;
53263;SDS011;39153;52.680;6.172;2022-10-15T07:13:35;116.68;;;57.70;;
53263;SDS011;39153;52.680;6.172;2022-10-15T07:16:05;109.28;;;56.33;;
53263;SDS011;39153;52.680;6.172;2022-10-15T07:18:33;122.03;;;60.72;;
53263;SDS011;39153;52.680;6.172;2022-10-15T07:20:59;116.57;;;57.05;;
53263;SDS011;39153;52.680;6.172;2022-10-15T07:23:25;121.70;;;59.88;;
53263;SDS011;39153;52.680;6.172;2022-10-15T07:25:51;134.55;;;74.00;;
53263;SDS011;39153;52.680;6.172;2022-10-15T07:28:16;124.25;;;62.38;;
53263;SDS011;39153;52.680;6.172;2022-10-15T07:30:42;126.15;;;60.60;;
53263;SDS011;39153;52.680;6.172;2022-10-15T07:33:08;132.13;;;64.80;;
53263;SDS011;39153;52.680;6.172;2022-10-15T07:35:35;140.20;;;65.25;;
53263;SDS011;39153;52.680;6.172;2022-10-15T07:38:01;137.63;;;66.55;;
53263;SDS011;39153;52.680;6.172;2022-10-15T07:40:34;142.07;;;76.57;;
53263;SDS011;39153;52.680;6.172;2022-10-15T07:43:00;134.82;;;63.47;;
53263;SDS011;39153;52.680;6.172;2022-10-15T07:45:26;157.05;;;81.03;;
53263;SDS011;39153;52.680;6.172;2022-10-15T07:47:51;150.10;;;65.32;;
53263;SDS011;39153;52.680;6.172;2022-10-15T07:50:18;141.23;;;64.20;;
53263;SDS011;39153;52.680;6.172;2022-10-15T07:52:44;149.25;;;67.70;;
53263;SDS011;39153;52.680;6.172;2022-10-15T07:55:09;143.02;;;76.18;;
53263;SDS011;39153;52.680;6.172;2022-10-15T07:57:35;153.32;;;69.53;;
53263;SDS011;39153;52.680;6.172;2022-10-15T08:00:01;150.07;;;66.85;;
53263;SDS011;39153;52.680;6.172;2022-10-15T08:02:27;145.07;;;69.07;;
53263;SDS011;39153;52.680;6.172;2022-10-15T08:04:52;155.10;;;66.15;;
53263;SDS011;39153;52.680;6.172;2022-10-15T08:07:18;142.35;;;66.45;;
53263;SDS011;39153;52.680;6.172;2022-10-15T08:09:43;145.00;;;62.85;;
53263;SDS011;39153;52.680;6.172;2022-10-15T08:12:09;145.77;;;61.25;;
53263;SDS011;39153;52.680;6.172;2022-10-15T08:14:35;146.88;;;63.47;;
53263;SDS011;39153;52.680;6.172;2022-10-15T08:17:01;139.93;;;59.15;;
53263;SDS011;39153;52.680;6.172;2022-10-15T08:19:28;154.18;;;61.40;;
53263;SDS011;39153;52.680;6.172;2022-10-15T08:21:54;145.20;;;61.15;;
53263;SDS011;39153;52.680;6.172;2022-10-15T08:24:19;142.55;;;60.28;;
53263;SDS011;39153;52.680;6.172;2022-10-15T08:26:45;147.75;;;68.80;;
53263;SDS011;39153;52.680;6.172;2022-10-15T08:29:11;142.32;;;67.88;;
53263;SDS011;39153;52.680;6.172;2022-10-15T08:31:40;137.18;;;57.13;;
53263;SDS011;39153;52.680;6.172;2022-10-15T08:34:06;137.30;;;56.83;;
53263;SDS011;39153;52.680;6.172;2022-10-15T08:36:32;127.13;;;64.65;;
53263;SDS011;39153;52.680;6.172;2022-10-15T08:38:57;125.22;;;51.88;;
53263;SDS011;39153;52.680;6.172;2022-10-15T08:43:55;114.22;;;50.55;;
53263;SDS011;39153;52.680;6.172;2022-10-15T08:46:22;112.40;;;54.58;;
53263;SDS011;39153;52.680;6.172;2022-10-15T08:48:54;103.20;;;47.92;;
53263;SDS011;39153;52.680;6.172;2022-10-15T08:51:23;89.80;;;43.70;;
53263;SDS011;39153;52.680;6.172;2022-10-15T08:53:58;89.68;;;43.17;;
53263;SDS011;39153;52.680;6.172;2022-10-15T08:56:32;82.90;;;45.58;;
53263;SDS011;39153;52.680;6.172;2022-10-15T09:01:43;80.38;;;40.55;;
53263;SDS011;39153;52.680;6.172;2022-10-15T09:04:33;64.43;;;35.75;;
53263;SDS011;39153;52.680;6.172;2022-10-15T09:07:32;64.45;;;33.40;;
53263;SDS011;39153;52.680;6.172;2022-10-15T09:13:14;60.47;;;38.58;;
53263;SDS011;39153;52.680;6.172;2022-10-15T09:15:47;58.17;;;37.13;;
53263;SDS011;39153;52.680;6.172;2022-10-15T09:18:17;59.75;;;32.85;;
53263;SDS011;39153;52.680;6.172;2022-10-15T09:20:46;54.25;;;33.95;;
53263;SDS011;39153;52.680;6.172;2022-10-15T09:23:16;50.55;;;34.10;;
53263;SDS011;39153;52.680;6.172;2022-10-15T09:25:44;51.30;;;32.97;;
53263;SDS011;39153;52.680;6.172;2022-10-15T09:28:22;47.28;;;32.30;;
53263;SDS011;39153;52.680;6.172;2022-10-15T09:30:54;47.10;;;30.80;;
53263;SDS011;39153;52.680;6.172;2022-10-15T09:36:04;44.13;;;27.00;;
53263;SDS011;39153;52.680;6.172;2022-10-15T09:38:45;43.75;;;28.65;;
53263;SDS011;39153;52.680;6.172;2022-10-15T09:42:21;39.80;;;27.70;;
53263;SDS011;39153;52.680;6.172;2022-10-15T09:44:13;40.22;;;27.23;;
53263;SDS011;39153;52.680;6.172;2022-10-15T09:46:45;33.38;;;25.35;;
53263;SDS011;39153;52.680;6.172;2022-10-15T09:54:24;32.17;;;23.60;;
53263;SDS011;39153;52.680;6.172;2022-10-15T09:57:01;32.10;;;23.23;;
53263;SDS011;39153;52.680;6.172;2022-10-15T09:59:27;32.88;;;22.73;;
53263;SDS011;39153;52.680;6.172;2022-10-15T10:02:00;29.95;;;22.15;;
53263;SDS011;39153;52.680;6.172;2022-10-15T10:04:41;31.33;;;23.83;;
53263;SDS011;39153;52.680;6.172;2022-10-15T10:07:07;31.73;;;24.45;;
53263;SDS011;39153;52.680;6.172;2022-10-15T10:09:56;34.63;;;24.98;;
53263;SDS011;39153;52.680;6.172;2022-10-15T10:12:28;32.38;;;24.65;;
53263;SDS011;39153;52.680;6.172;2022-10-15T10:17:24;32.83;;;24.52;;
53263;SDS011;39153;52.680;6.172;2022-10-15T10:22:48;34.33;;;24.60;;
53263;SDS011;39153;52.680;6.172;2022-10-15T10:28:39;32.72;;;25.23;;
53263;SDS011;39153;52.680;6.172;2022-10-15T10:30:47;34.67;;;25.63;;
53263;SDS011;39153;52.680;6.172;2022-10-15T10:33:27;33.65;;;25.08;;
53263;SDS011;39153;52.680;6.172;2022-10-15T10:36:06;35.83;;;26.80;;
53263;SDS011;39153;52.680;6.172;2022-10-15T10:38:53;32.92;;;26.17;;
53263;SDS011;39153;52.680;6.172;2022-10-15T10:41:22;34.13;;;26.45;;
53263;SDS011;39153;52.680;6.172;2022-10-15T10:43:54;36.67;;;27.27;;
53263;SDS011;39153;52.680;6.172;2022-10-15T10:46:20;36.08;;;27.23;;
53263;SDS011;39153;52.680;6.172;2022-10-15T10:48:51;31.63;;;25.98;;
53263;SDS011;39153;52.680;6.172;2022-10-15T10:51:22;35.38;;;26.48;;
53263;SDS011;39153;52.680;6.172;2022-10-15T10:53:57;33.65;;;26.20;;
53263;SDS011;39153;52.680;6.172;2022-10-15T10:56:41;33.90;;;26.35;;
53263;SDS011;39153;52.680;6.172;2022-10-15T11:01:33;32.75;;;25.42;;
53263;SDS011;39153;52.680;6.172;2022-10-15T11:03:59;31.55;;;24.45;;
53263;SDS011;39153;52.680;6.172;2022-10-15T11:11:57;28.98;;;23.27;;
53263;SDS011;39153;52.680;6.172;2022-10-15T11:19:56;27.40;;;21.88;;
53263;SDS011;39153;52.680;6.172;2022-10-15T11:36:06;31.27;;;24.08;;
53263;SDS011;39153;52.680;6.172;2022-10-15T11:41:45;32.55;;;25.02;;
53263;SDS011;39153;52.680;6.172;2022-10-15T11:44:24;31.15;;;24.90;;
53263;SDS011;39153;52.680;6.172;2022-10-15T11:47:13;29.83;;;23.50;;
53263;SDS011;39153;52.680;6.172;2022-10-15T11:57:51;30.85;;;24.05;;
53263;SDS011;39153;52.680;6.172;2022-10-15T12:00:36;30.92;;;23.95;;
53263;SDS011;39153;52.680;6.172;2022-10-15T12:03:09;34.08;;;24.38;;
53263;SDS011;39153;52.680;6.172;2022-10-15T12:05:44;36.00;;;25.27;;
53263;SDS011;39153;52.680;6.172;2022-10-15T12:18:47;36.70;;;25.85;;
53263;SDS011;39153;52.680;6.172;2022-10-15T12:34:54;30.50;;;22.40;;
53263;SDS011;39153;52.680;6.172;2022-10-15T12:37:22;31.52;;;22.20;;
53263;SDS011;39153;52.680;6.172;2022-10-15T12:39:55;30.48;;;21.35;;
53263;SDS011;39153;52.680;6.172;2022-10-15T12:42:30;30.33;;;21.58;;
53263;SDS011;39153;52.680;6.172;2022-10-15T12:44:59;29.48;;;21.02;;
53263;SDS011;39153;52.680;6.172;2022-10-15T12:50:38;25.50;;;18.63;;
53263;SDS011;39153;52.680;6.172;2022-10-15T12:53:04;26.40;;;19.40;;
53263;SDS011;39153;52.680;6.172;2022-10-15T12:58:38;29.10;;;21.65;;
53263;SDS011;39153;52.680;6.172;2022-10-15T13:08:47;28.63;;;21.25;;
53263;SDS011;39153;52.680;6.172;2022-10-15T13:11:18;27.88;;;20.13;;
53263;SDS011;39153;52.680;6.172;2022-10-15T13:13:49;28.17;;;19.98;;
53263;SDS011;39153;52.680;6.172;2022-10-15T13:16:17;31.15;;;20.55;;
53263;SDS011;39153;52.680;6.172;2022-10-15T13:18:47;28.23;;;19.48;;
53263;SDS011;39153;52.680;6.172;2022-10-15T13:21:15;28.88;;;20.35;;
53263;SDS011;39153;52.680;6.172;2022-10-15T13:23:45;27.27;;;18.52;;
53263;SDS011;39153;52.680;6.172;2022-10-15T13:26:16;26.10;;;18.17;;
53263;SDS011;39153;52.680;6.172;2022-10-15T13:28:44;27.30;;;18.95;;
53263;SDS011;39153;52.680;6.172;2022-10-15T13:31:24;22.83;;;17.67;;
53263;SDS011;39153;52.680;6.172;2022-10-15T13:36:55;25.08;;;16.58;;
53263;SDS011;39153;52.680;6.172;2022-10-15T13:39:27;22.80;;;16.10;;
53263;SDS011;39153;52.680;6.172;2022-10-15T13:44:38;20.60;;;15.43;;
53263;SDS011;39153;52.680;6.172;2022-10-15T13:47:39;18.30;;;14.10;;
53263;SDS011;39153;52.680;6.172;2022-10-15T13:53:31;17.48;;;13.10;;
53263;SDS011;39153;52.680;6.172;2022-10-15T13:55:37;17.90;;;13.75;;
53263;SDS011;39153;52.680;6.172;2022-10-15T14:00:42;18.63;;;12.52;;
53263;SDS011;39153;52.680;6.172;2022-10-15T14:03:18;16.20;;;12.18;;
53263;SDS011;39153;52.680;6.172;2022-10-15T14:05:49;14.80;;;11.32;;
53263;SDS011;39153;52.680;6.172;2022-10-15T14:08:22;13.75;;;10.65;;
53263;SDS011;39153;52.680;6.172;2022-10-15T14:10:50;14.23;;;10.57;;
53263;SDS011;39153;52.680;6.172;2022-10-15T14:13:18;14.55;;;9.82;;
53263;SDS011;39153;52.680;6.172;2022-10-15T14:15:49;12.85;;;9.13;;
53263;SDS011;39153;52.680;6.172;2022-10-15T14:19:13;12.13;;;9.30;;
53263;SDS011;39153;52.680;6.172;2022-10-15T14:21:13;13.52;;;9.00;;
53263;SDS011;39153;52.680;6.172;2022-10-15T14:23:42;12.63;;;9.05;;
53263;SDS011;39153;52.680;6.172;2022-10-15T14:26:10;12.38;;;8.30;;
53263;SDS011;39153;52.680;6.172;2022-10-15T14:28:37;12.38;;;8.57;;
53263;SDS011;39153;52.680;6.172;2022-10-15T14:31:04;12.15;;;8.10;;
53263;SDS011;39153;52.680;6.172;2022-10-15T14:33:32;10.75;;;8.13;;
53263;SDS011;39153;52.680;6.172;2022-10-15T14:38:49;10.20;;;7.63;;
53263;SDS011;39153;52.680;6.172;2022-10-15T14:41:26;8.85;;;7.43;;
53263;SDS011;39153;52.680;6.172;2022-10-15T14:44:38;9.90;;;7.60;;
53263;SDS011;39153;52.680;6.172;2022-10-15T14:46:48;10.23;;;7.32;;
53263;SDS011;39153;52.680;6.172;2022-10-15T14:49:24;8.90;;;7.20;;
53263;SDS011;39153;52.680;6.172;2022-10-15T14:51:52;8.13;;;6.90;;
53263;SDS011;39153;52.680;6.172;2022-10-15T14:54:22;8.40;;;7.15;;
53263;SDS011;39153;52.680;6.172;2022-10-15T14:56:55;9.75;;;7.28;;
53263;SDS011;39153;52.680;6.172;2022-10-15T14:59:22;11.30;;;8.32;;
53263;SDS011;39153;52.680;6.172;2022-10-15T15:01:56;9.25;;;7.75;;
53263;SDS011;39153;52.680;6.172;2022-10-15T15:05:04;9.05;;;7.10;;
53263;SDS011;39153;52.680;6.172;2022-10-15T15:07:51;9.20;;;6.90;;
53263;SDS011;39153;52.680;6.172;2022-10-15T15:10:18;8.00;;;6.60;;
53263;SDS011;39153;52.680;6.172;2022-10-15T15:12:45;8.88;;;7.63;;
53263;SDS011;39153;52.680;6.172;2022-10-15T15:15:15;10.70;;;8.27;;
53263;SDS011;39153;52.680;6.172;2022-10-15T15:17:43;9.23;;;6.80;;
53263;SDS011;39153;52.680;6.172;2022-10-15T15:20:09;8.35;;;6.40;;
53263;SDS011;39153;52.680;6.172;2022-10-15T15:22:35;9.00;;;6.60;;
53263;SDS011;39153;52.680;6.172;2022-10-15T15:25:44;9.82;;;6.15;;
53263;SDS011;39153;52.680;6.172;2022-10-15T15:27:55;8.73;;;6.85;;
53263;SDS011;39153;52.680;6.172;2022-10-15T15:30:26;11.88;;;8.73;;
53263;SDS011;39153;52.680;6.172;2022-10-15T15:32:53;9.20;;;6.78;;
53263;SDS011;39153;52.680;6.172;2022-10-15T15:35:22;9.85;;;6.80;;
53263;SDS011;39153;52.680;6.172;2022-10-15T15:37:59;7.93;;;6.05;;
53263;SDS011;39153;52.680;6.172;2022-10-15T15:40:24;7.60;;;5.65;;
53263;SDS011;39153;52.680;6.172;2022-10-15T15:42:50;6.10;;;4.78;;
53263;SDS011;39153;52.680;6.172;2022-10-15T15:45:21;5.78;;;4.85;;
53263;SDS011;39153;52.680;6.172;2022-10-15T15:47:48;5.78;;;4.57;;
53263;SDS011;39153;52.680;6.172;2022-10-15T15:50:14;6.05;;;4.40;;
53263;SDS011;39153;52.680;6.172;2022-10-15T15:52:41;5.68;;;4.60;;
53263;SDS011;39153;52.680;6.172;2022-10-15T15:55:07;6.10;;;4.80;;
53263;SDS011;39153;52.680;6.172;2022-10-15T15:57:34;6.03;;;5.07;;
53263;SDS011;39153;52.680;6.172;2022-10-15T16:00:00;6.25;;;5.05;;
53263;SDS011;39153;52.680;6.172;2022-10-15T16:02:26;6.90;;;5.80;;
53263;SDS011;39153;52.680;6.172;2022-10-15T16:04:51;7.45;;;5.65;;
53263;SDS011;39153;52.680;6.172;2022-10-15T16:07:17;6.38;;;5.07;;
53263;SDS011;39153;52.680;6.172;2022-10-15T16:09:43;8.52;;;5.05;;
53263;SDS011;39153;52.680;6.172;2022-10-15T16:12:08;6.60;;;4.65;;
53263;SDS011;39153;52.680;6.172;2022-10-15T16:14:34;5.60;;;4.40;;
53263;SDS011;39153;52.680;6.172;2022-10-15T16:17:00;5.13;;;4.10;;
53263;SDS011;39153;52.680;6.172;2022-10-15T16:19:26;5.72;;;4.03;;
53263;SDS011;39153;52.680;6.172;2022-10-15T16:21:51;5.45;;;4.22;;
53263;SDS011;39153;52.680;6.172;2022-10-15T16:24:17;5.82;;;4.28;;
53263;SDS011;39153;52.680;6.172;2022-10-15T16:26:42;6.05;;;4.90;;
53263;SDS011;39153;52.680;6.172;2022-10-15T16:29:08;6.53;;;4.95;;
53263;SDS011;39153;52.680;6.172;2022-10-15T16:31:34;8.75;;;5.55;;
53263;SDS011;39153;52.680;6.172;2022-10-15T16:34:03;7.45;;;5.75;;
53263;SDS011;39153;52.680;6.172;2022-10-15T16:36:30;7.45;;;5.90;;
53263;SDS011;39153;52.680;6.172;2022-10-15T16:38:56;7.35;;;6.53;;
53263;SDS011;39153;52.680;6.172;2022-10-15T16:41:22;7.20;;;6.15;;
53263;SDS011;39153;52.680;6.172;2022-10-15T16:43:48;7.63;;;6.75;;
53263;SDS011;39153;52.680;6.172;2022-10-15T16:46:14;7.60;;;6.47;;
53263;SDS011;39153;52.680;6.172;2022-10-15T16:48:41;6.95;;;6.25;;